Time;durP1;ratioP1;P1;durP2;ratioP2;P2;SDS_P1;SDS_P2;PMS_P1;PMS_P2;Temp;Humidity;BMP_temperature;BMP_pressure;BME280_temperature;BME280_humidity;BME280_pressure;Samples;Min_cycle;Max_cycle;Signal;HPM_P1;HPM_P2
2022/02/15 00:00:38;;;;;;;15.60;7.50;;;;;;;-0.22;54.92;99234.78;5128307;27;20467;-71
2022/02/15 00:03:08;;;;;;;17.77;7.40;;;;;;;-0.15;55.06;99251.69;5144578;27;20039;-73
2022/02/15 00:05:35;;;;;;;15.93;7.27;;;;;;;-0.10;54.88;99242.13;5140038;27;20537;-71
2022/02/15 00:08:01;;;;;;;17.00;6.97;;;;;;;-0.12;54.98;99244.22;5137605;27;20573;-70
2022/02/15 00:10:28;;;;;;;16.07;6.90;;;;;;;-0.10;55.08;99250.22;5143955;27;20141;-71
2022/02/15 00:12:54;;;;;;;19.00;8.57;;;;;;;-0.19;55.11;99238.91;5146902;27;20095;-71
2022/02/15 00:15:20;;;;;;;19.35;7.38;;;;;;;-0.20;55.08;99230.00;5149455;27;20892;-71
2022/02/15 00:17:46;;;;;;;18.48;7.85;;;;;;;-0.12;54.95;99242.34;5128555;28;20047;-72
2022/02/15 00:20:12;;;;;;;17.60;7.50;;;;;;;-0.08;54.88;99243.59;5149330;27;20050;-71
2022/02/15 00:22:39;;;;;;;15.90;7.63;;;;;;;-0.01;54.76;99233.59;5124250;27;20073;-69
2022/02/15 00:25:06;;;;;;;17.60;7.35;;;;;;;-0.01;54.71;99248.88;5115429;27;20419;-70
2022/02/15 00:27:33;;;;;;;17.52;7.28;;;;;;;-0.02;54.69;99241.84;5150329;27;20039;-70
2022/02/15 00:30:00;;;;;;;20.17;8.13;;;;;;;0.09;54.55;99238.47;5124735;27;20374;-71
2022/02/15 00:32:26;;;;;;;18.33;7.45;;;;;;;0.09;54.62;99245.72;5128009;27;20312;-71
2022/02/15 00:34:52;;;;;;;19.33;7.68;;;;;;;0.10;54.51;99248.19;5149485;27;20495;-71
2022/02/15 00:37:18;;;;;;;17.67;7.55;;;;;;;-0.14;55.05;99236.38;5126210;27;20039;-70
2022/02/15 00:39:44;;;;;;;19.77;7.60;;;;;;;0.06;54.67;99259.59;5148985;27;20050;-70
2022/02/15 00:42:10;;;;;;;16.40;8.13;;;;;;;0.01;54.92;99254.03;5141000;27;20141;-71
2022/02/15 00:44:37;;;;;;;20.42;7.57;;;;;;;0.03;54.85;99236.66;5128724;27;20046;-71
2022/02/15 00:47:03;;;;;;;16.73;7.20;;;;;;;0.04;54.76;99241.00;5108806;27;20042;-70
2022/02/15 00:49:29;;;;;;;17.40;7.55;;;;;;;0.01;54.90;99254.03;5150186;27;20138;-71
2022/02/15 00:51:56;;;;;;;17.25;7.50;;;;;;;0.04;54.82;99248.22;5121413;27;20096;-71
2022/02/15 00:54:22;;;;;;;16.05;7.22;;;;;;;-0.03;55.17;99261.72;5137738;27;20043;-68
2022/02/15 00:56:49;;;;;;;16.90;7.45;;;;;;;-0.01;55.12;99260.47;5127787;27;20055;-69
2022/02/15 00:59:15;;;;;;;21.40;8.13;;;;;;;0.07;54.95;99270.13;5149529;27;20034;-69
2022/02/15 01:01:42;;;;;;;18.70;7.65;;;;;;;-0.01;55.15;99254.25;5092342;27;20053;-70
2022/02/15 01:04:07;;;;;;;19.40;8.00;;;;;;;0.05;55.03;99271.38;5125174;27;20414;-72
2022/02/15 01:06:35;;;;;;;18.23;7.63;;;;;;;0.05;55.02;99266.84;5127187;27;20047;-70
2022/02/15 01:09:02;;;;;;;16.25;7.72;;;;;;;0.12;55.05;99251.47;5128631;27;20575;-70
2022/02/15 01:11:28;;;;;;;19.70;8.68;;;;;;;-0.02;55.42;99271.44;5128325;27;20043;-70
2022/02/15 01:13:54;;;;;;;20.98;8.13;;;;;;;0.03;55.25;99271.63;5148435;27;20047;-70
2022/02/15 01:16:21;;;;;;;18.20;8.38;;;;;;;0.03;55.30;99265.41;5125537;27;20054;-69
2022/02/15 01:18:47;;;;;;;18.00;7.82;;;;;;;0.02;55.32;99272.66;5126788;27;20138;-70
2022/02/15 01:21:13;;;;;;;20.97;7.87;;;;;;;-0.05;55.48;99274.56;5107757;27;20047;-71
2022/02/15 01:23:40;;;;;;;21.42;8.02;;;;;;;-0.11;55.97;99280.81;5144108;27;20041;-70
2022/02/15 01:26:06;;;;;;;18.93;8.40;;;;;;;0.11;55.24;99287.47;5147549;27;20046;-69
2022/02/15 01:28:34;;;;;;;18.45;7.60;;;;;;;0.15;55.17;99279.78;5148294;27;20058;-70
2022/02/15 01:31:01;;;;;;;18.00;8.15;;;;;;;0.09;55.57;99286.88;5129183;27;20481;-72
2022/02/15 01:33:27;;;;;;;20.73;8.00;;;;;;;0.04;55.41;99296.63;5122435;27;20095;-74
2022/02/15 01:35:54;;;;;;;17.95;8.38;;;;;;;0.10;55.33;99298.44;5129303;27;20041;-74
2022/02/15 01:38:20;;;;;;;21.23;8.70;;;;;;;-0.05;55.84;99286.16;5150596;27;20053;-73
2022/02/15 01:40:47;;;;;;;18.20;8.40;;;;;;;0.01;55.67;99281.78;5130484;27;20046;-72
2022/02/15 01:43:13;;;;;;;16.13;7.78;;;;;;;0.01;55.60;99300.59;5117098;27;20511;-71
2022/02/15 01:45:39;;;;;;;20.00;8.80;;;;;;;-0.11;56.15;99288.88;5131101;27;20042;-73
2022/02/15 01:48:05;;;;;;;21.40;7.75;;;;;;;-0.06;56.08;99294.41;5130890;27;20463;-73
2022/02/15 01:50:32;;;;;;;18.70;7.82;;;;;;;-0.12;56.16;99288.03;5125909;27;20080;-72
2022/02/15 01:53:00;;;;;;;20.20;8.95;;;;;;;-0.17;56.57;99294.06;5140856;27;20055;-70
2022/02/15 01:55:26;;;;;;;19.45;8.73;;;;;;;-0.20;56.66;99289.13;5128100;27;20047;-72
2022/02/15 01:57:54;;;;;;;;;;;;;;;-0.23;56.92;99303.00;5126233;27;20518;-72
2022/02/15 02:00:26;;;;;;;22.00;8.18;;;;;;;-0.25;56.60;99290.81;5146317;27;19946;-72
2022/02/15 02:03:04;;;;;;;20.42;8.73;;;;;;;-0.18;56.46;99294.28;5111107;27;20035;-72
2022/02/15 02:05:48;;;;;;;20.43;8.70;;;;;;;-0.22;56.72;99303.84;5129825;27;20066;-73
2022/02/15 02:08:20;;;;;;;19.40;8.57;;;;;;;-0.27;56.93;99295.56;5125072;27;20077;-74
2022/02/15 02:10:48;;;;;;;17.48;8.25;;;;;;;-0.18;56.67;99299.66;5127626;27;20053;-72
2022/02/15 02:13:24;;;;;;;22.08;9.45;;;;;;;-0.17;56.65;99317.44;5120610;27;20038;-73
2022/02/15 02:15:52;;;;;;;19.00;8.50;;;;;;;-0.09;56.66;99306.41;5124759;27;20051;-73
2022/02/15 02:18:18;;;;;;;19.67;8.73;;;;;;;-0.19;56.71;99314.16;5128501;27;20083;-73
2022/02/15 02:20:46;;;;;;;22.00;9.18;;;;;;;-0.08;56.71;99321.53;5106212;27;20431;-73
2022/02/15 02:23:16;;;;;;;17.88;8.43;;;;;;;-0.12;56.77;99319.47;5131973;27;20391;-73
2022/02/15 02:25:44;;;;;;;18.13;8.87;;;;;;;0.01;56.74;99316.72;5126618;27;20046;-73
2022/02/15 02:28:12;;;;;;;19.50;8.80;;;;;;;-0.05;56.78;99314.88;5126420;27;20134;-73
2022/02/15 02:30:38;;;;;;;19.92;8.88;;;;;;;-0.06;57.02;99318.59;5123126;27;20387;-69
2022/02/15 02:33:05;;;;;;;22.52;9.05;;;;;;;-0.11;56.74;99310.38;5118529;27;20051;-74
2022/02/15 02:35:32;;;;;;;23.63;9.25;;;;;;;-0.22;56.99;99304.66;5126702;27;20045;-73
2022/02/15 02:37:58;;;;;;;18.50;9.00;;;;;;;-0.06;56.89;99321.28;5121833;28;20051;-74
2022/02/15 02:40:25;;;;;;;22.88;9.80;;;;;;;-0.12;57.13;99330.22;5120871;27;20051;-74
2022/02/15 02:42:51;;;;;;;20.90;9.27;;;;;;;-0.18;57.36;99321.16;5102867;27;20047;-74
2022/02/15 02:45:19;;;;;;;20.70;9.10;;;;;;;-0.02;57.09;99330.56;5138658;27;20043;-74
2022/02/15 02:47:47;;;;;;;19.33;8.57;;;;;;;-0.10;57.47;99326.28;5122681;27;20051;-74
2022/02/15 02:50:16;;;;;;;19.50;9.20;;;;;;;-0.17;57.35;99334.38;5144756;27;20053;-73
2022/02/15 02:52:42;;;;;;;;;;;;;;;-0.26;57.74;99343.75;5104990;28;20476;-73
2022/02/15 02:55:11;;;;;;;20.20;8.77;;;;;;;-0.29;57.75;99336.13;5107859;27;19922;-74
2022/02/15 02:57:38;;;;;;;22.45;8.73;;;;;;;-0.32;58.13;99337.34;5120872;27;20043;-74
2022/02/15 03:00:08;;;;;;;19.95;8.50;;;;;;;-0.26;57.85;99332.16;5112769;27;20483;-72
2022/02/15 03:02:54;;;;;;;23.20;9.57;;;;;;;-0.43;58.33;99329.97;5144614;27;20141;-73
2022/02/15 03:05:20;;;;;;;19.20;8.93;;;;;;;-0.52;58.70;99345.50;5111859;27;20098;-73
2022/02/15 03:07:47;;;;;;;23.90;9.15;;;;;;;-0.49;58.62;99326.28;5125166;27;20043;-73
2022/02/15 03:10:14;;;;;;;21.52;9.65;;;;;;;-0.46;58.90;99327.72;5124198;27;20513;-73
2022/02/15 03:12:40;;;;;;;24.73;10.00;;;;;;;-0.54;58.98;99339.53;5130428;27;20043;-73
2022/02/15 03:15:07;;;;;;;19.40;8.63;;;;;;;-0.55;59.20;99337.03;5143064;27;20091;-73
2022/02/15 03:17:38;;;;;;;22.42;9.32;;;;;;;-0.50;58.67;99331.88;5123905;28;20050;-73
2022/02/15 03:20:06;;;;;;;20.13;9.30;;;;;;;-0.55;58.93;99334.34;5125954;27;20042;-73
2022/02/15 03:22:32;;;;;;;20.27;8.90;;;;;;;-0.42;58.78;99336.97;5125367;27;20042;-73
2022/02/15 03:24:59;;;;;;;21.53;9.10;;;;;;;-0.54;59.15;99336.84;5127201;27;20058;-73
2022/02/15 03:27:26;;;;;;;19.93;9.17;;;;;;;-0.58;59.29;99328.38;5109076;27;20051;-73
2022/02/15 03:29:53;;;;;;;20.30;9.20;;;;;;;-0.38;58.89;99334.69;5108001;27;20047;-73
2022/02/15 03:32:22;;;;;;;21.03;9.67;;;;;;;-0.43;58.84;99341.56;5145472;27;20046;-73
2022/02/15 03:34:49;;;;;;;21.25;10.30;;;;;;;-0.36;58.53;99341.53;5109554;27;20038;-74
2022/02/15 03:37:15;;;;;;;23.17;9.32;;;;;;;-0.35;58.48;99353.91;5115520;27;20051;-75
2022/02/15 03:39:42;;;;;;;23.00;9.20;;;;;;;-0.59;59.44;99353.59;5111361;27;20121;-74
2022/02/15 03:44:56;;;;;;;18.58;8.63;;;;;;;-0.74;60.00;99353.84;5124261;27;20587;-75
2022/02/15 03:47:40;;;;;;;22.67;9.90;;;;;;;-0.66;59.86;99346.59;5126481;27;20055;-73
2022/02/15 03:50:06;;;;;;;;;;;;;;;-0.71;59.88;99360.66;5108942;27;20071;-74
2022/02/15 03:52:32;;;;;;;23.73;9.17;;;;;;;-0.77;59.87;99348.06;5096070;27;20395;-73
2022/02/15 03:54:59;;;;;;;21.47;9.83;;;;;;;-0.79;60.08;99359.00;5124867;27;20066;-73
2022/02/15 03:57:25;;;;;;;21.35;9.48;;;;;;;-0.73;60.06;99347.44;5132197;27;20056;-74
2022/02/15 03:59:51;;;;;;;24.55;9.32;;;;;;;-0.69;60.15;99352.38;5129611;27;20046;-72
2022/02/15 04:02:26;;;;;;;24.53;9.60;;;;;;;-0.69;59.94;99355.06;5115018;27;20566;-73
2022/02/15 04:04:52;;;;;;;24.08;10.18;;;;;;;-0.73;60.01;99360.88;5128898;27;20049;-73
2022/02/15 04:07:21;;;;;;;22.40;9.57;;;;;;;-0.63;59.82;99357.75;5124161;27;21732;-73
2022/02/15 04:09:47;;;;;;;19.73;9.40;;;;;;;-0.62;59.63;99353.22;5131375;27;20468;-73
2022/02/15 04:12:14;;;;;;;26.40;9.83;;;;;;;-0.70;59.65;99342.69;5149236;27;20043;-73
2022/02/15 04:14:42;;;;;;;20.80;9.47;;;;;;;-0.74;60.07;99363.75;5129639;27;20053;-73
2022/02/15 04:17:08;;;;;;;20.50;9.50;;;;;;;-0.73;59.82;99363.56;5126685;27;20039;-72
2022/02/15 04:19:36;;;;;;;21.13;9.27;;;;;;;-0.88;60.51;99347.69;5127844;27;20038;-73
2022/02/15 04:22:03;;;;;;;22.60;9.87;;;;;;;-0.70;60.06;99364.16;5127096;27;20133;-72
2022/02/15 04:24:32;;;;;;;22.13;9.40;;;;;;;-0.69;59.79;99360.44;5109959;27;20464;-72
2022/02/15 04:26:59;;;;;;;24.40;9.87;;;;;;;-0.75;60.07;99348.69;5128435;27;20131;-72
2022/02/15 04:29:26;;;;;;;26.47;9.43;;;;;;;-0.98;60.36;99365.25;5127700;27;20414;-71
2022/02/15 04:31:56;;;;;;;22.13;9.80;;;;;;;-0.89;60.46;99364.81;5109080;27;20058;-73
2022/02/15 04:34:23;;;;;;;19.70;9.38;;;;;;;-0.81;60.01;99361.09;5124166;27;20149;-72
2022/02/15 04:36:50;;;;;;;20.60;9.83;;;;;;;-0.81;59.76;99349.53;5108198;27;20095;-73
2022/02/15 04:39:17;;;;;;;21.17;9.63;;;;;;;-0.77;59.81;99358.81;5144974;27;20046;-73
2022/02/15 04:41:57;;;;;;;21.00;9.30;;;;;;;-0.83;59.98;99365.03;5110372;27;20395;-73
2022/02/15 04:44:23;;;;;;;20.07;8.57;;;;;;;-0.82;59.98;99375.56;5122973;27;20046;-73
2022/02/15 04:46:49;;;;;;;21.27;9.73;;;;;;;-0.73;59.65;99363.56;5124995;27;20058;-73
2022/02/15 04:49:19;;;;;;;21.70;9.00;;;;;;;-0.76;59.77;99363.16;5125761;27;20053;-73
2022/02/15 04:51:47;;;;;;;22.85;8.65;;;;;;;-0.77;59.93;99380.28;5094755;27;20043;-73
2022/02/15 04:54:17;;;;;;;24.40;9.70;;;;;;;-0.77;59.69;99373.06;5109530;27;20039;-73
2022/02/15 04:56:43;;;;;;;21.87;9.23;;;;;;;-0.81;59.78;99379.06;5125804;27;20096;-73
2022/02/15 04:59:10;;;;;;;29.80;10.37;;;;;;;-1.06;60.22;99372.50;5130276;27;20502;-73
2022/02/15 05:01:36;;;;;;;19.30;8.97;;;;;;;-1.28;61.00;99393.38;5128518;27;20493;-73
2022/02/15 05:06:53;;;;;;;19.60;9.43;;;;;;;-1.20;60.86;99395.84;5114354;27;20058;-72
2022/02/15 05:09:21;;;;;;;21.45;9.23;;;;;;;-1.13;60.62;99381.59;5114077;27;20237;-74
2022/02/15 05:11:47;;;;;;;23.05;8.98;;;;;;;-0.93;60.31;99395.81;5113455;28;20531;-72
2022/02/15 05:14:14;;;;;;;25.53;9.77;;;;;;;-1.17;60.94;99397.28;5120426;27;20623;-73
2022/02/15 05:16:44;;;;;;;22.17;9.40;;;;;;;-1.20;60.92;99389.66;5126260;27;20061;-72
2022/02/15 05:19:17;;;;;;;21.87;9.07;;;;;;;-1.16;60.74;99391.72;5132631;27;20046;-73
2022/02/15 05:21:48;;;;;;;21.90;9.23;;;;;;;-0.92;60.00;99405.50;5125114;27;20054;-72
2022/02/15 05:24:14;;;;;;;20.63;8.37;;;;;;;-0.91;59.76;99398.31;5092066;27;20042;-73
2022/02/15 05:26:55;;;;;;;21.47;8.97;;;;;;;-0.90;59.78;99395.41;5133066;27;20054;-73
2022/02/15 05:29:50;;;;;;;19.73;9.07;;;;;;;-1.04;60.27;99394.59;5125692;27;20062;-70
2022/02/15 05:32:39;;;;;;;21.50;9.20;;;;;;;-0.92;59.90;99397.47;5140596;27;20050;-71
2022/02/15 05:35:09;;;;;;;21.80;8.90;;;;;;;-0.86;59.72;99402.00;5122603;27;20490;-72
2022/02/15 05:37:39;;;;;;;25.67;11.25;;;;;;;-0.89;59.55;99399.72;5113599;27;20042;-71
2022/02/15 05:40:10;;;;;;;29.90;11.07;;;;;;;-0.85;59.61;99400.13;5130657;27;20047;-71
2022/02/15 05:42:49;;;;;;;29.33;10.97;;;;;;;-1.07;60.35;99394.19;5130532;27;20078;-73
2022/02/15 05:45:16;;;;;;;23.23;9.20;;;;;;;-0.86;59.76;99403.84;5126674;27;20227;-73
2022/02/15 05:48:00;;;;;;;21.20;9.10;;;;;;;-0.82;59.47;99406.97;5119067;27;20038;-73
2022/02/15 05:53:14;;;;;;;17.63;8.07;;;;;;;-0.76;59.22;99408.78;5136206;27;20506;-72
2022/02/15 05:55:40;;;;;;;18.97;8.13;;;;;;;-0.86;59.52;99420.81;5143841;27;20400;-71
2022/02/15 05:58:08;;;;;;;19.98;8.63;;;;;;;-0.76;59.24;99425.75;5131207;27;20043;-72
2022/02/15 06:00:35;;;;;;;20.67;8.60;;;;;;;-0.77;59.11;99412.50;5097509;27;20512;-72
2022/02/15 06:04:09;;;;;;;21.57;8.47;;;;;;;-0.78;59.00;99427.81;5107706;27;20039;-72
2022/02/15 06:05:48;;;;;;;25.45;10.00;;;;;;;-0.72;58.93;99451.13;5130343;27;20053;-72
2022/02/15 06:08:14;;;;;;;26.13;11.07;;;;;;;-0.70;58.93;99444.72;5152639;27;20070;-73
2022/02/15 06:10:43;;;;;;;;;;;;;;;-0.68;58.68;99434.59;5128624;27;20047;-71
2022/02/15 06:13:27;;;;;;;16.97;8.27;;;;;;;-0.60;58.54;99432.50;5108299;27;20030;-73
2022/02/15 06:15:54;;;;;;;19.77;8.60;;;;;;;-0.39;58.05;99424.41;5150315;27;20057;-71
2022/02/15 06:18:32;;;;;;;22.75;8.82;;;;;;;-0.49;58.15;99416.78;5121030;27;20039;-72
2022/02/15 06:21:02;;;;;;;23.37;8.87;;;;;;;-0.34;57.82;99436.16;5126900;27;20174;-73
2022/02/15 06:23:29;;;;;;;;;;;;;;;-0.46;58.03;99437.84;5107726;27;20050;-73
2022/02/15 06:26:08;;;;;;;24.70;9.40;;;;;;;-0.42;57.66;99436.38;5114689;27;19923;-74
2022/02/15 06:28:59;;;;;;;21.23;8.97;;;;;;;-0.38;57.82;99436.78;5106968;27;20533;-73
2022/02/15 06:31:33;;;;;;;18.77;8.50;;;;;;;-0.41;57.56;99443.41;5099827;27;20137;-72
2022/02/15 06:34:00;;;;;;;20.00;8.50;;;;;;;-0.22;57.09;99457.81;5150284;27;20051;-71
2022/02/15 06:36:26;;;;;;;19.42;8.43;;;;;;;-0.22;57.21;99444.38;5096003;27;20129;-74
2022/02/15 06:38:57;;;;;;;25.43;8.50;;;;;;;-0.21;57.28;99446.03;5127371;27;20095;-73
2022/02/15 06:41:24;;;;;;;20.87;8.53;;;;;;;-0.17;57.07;99449.13;5132158;27;20078;-73
2022/02/15 06:43:58;;;;;;;22.50;8.67;;;;;;;-0.08;56.79;99441.66;5126896;27;20395;-74
2022/02/15 06:46:39;;;;;;;19.03;8.70;;;;;;;-0.02;56.45;99460.44;5106910;27;20419;-73
2022/02/15 06:49:15;;;;;;;22.33;9.03;;;;;;;0.09;56.27;99455.44;5146428;27;20586;-74
2022/02/15 06:51:50;;;;;;;19.33;8.63;;;;;;;0.08;56.52;99456.44;5131364;27;20084;-73
2022/02/15 06:54:16;;;;;;;23.43;9.07;;;;;;;0.23;55.82;99464.25;5124928;27;20039;-73
2022/02/15 06:56:52;;;;;;;21.85;9.20;;;;;;;0.20;56.01;99472.75;5100887;28;20092;-74
2022/02/15 06:59:27;;;;;;;20.70;9.07;;;;;;;0.10;56.11;99468.66;5098176;28;20088;-73
2022/02/15 07:01:53;;;;;;;20.00;8.30;;;;;;;0.29;55.76;99463.38;5117506;27;20531;-71
2022/02/15 07:04:19;;;;;;;20.23;8.77;;;;;;;0.30;55.63;99466.91;5123669;27;20310;-71
2022/02/15 07:06:50;;;;;;;22.23;9.43;;;;;;;0.40;55.33;99484.22;5143860;27;20324;-71
2022/02/15 07:09:16;;;;;;;23.25;9.13;;;;;;;0.42;55.29;99457.13;5132375;27;20043;-71
2022/02/15 07:12:03;;;;;;;22.77;10.17;;;;;;;0.37;55.17;99473.91;5093651;27;20166;-73
2022/02/15 07:14:37;;;;;;;25.03;8.83;;;;;;;0.31;55.29;99476.63;5098356;27;20103;-72
2022/02/15 07:17:05;;;;;;;19.73;8.95;;;;;;;0.38;55.25;99472.84;5123972;27;20039;-73
2022/02/15 07:19:32;;;;;;;22.40;8.27;;;;;;;0.46;55.14;99477.16;5146325;27;20498;-71
2022/02/15 07:22:29;;;;;;;23.00;7.97;;;;;;;0.53;54.95;99475.25;5078021;27;20064;-72
2022/02/15 07:25:11;;;;;;;20.95;7.72;;;;;;;0.53;54.74;99483.31;5115240;27;20038;-71
2022/02/15 07:27:49;;;;;;;21.90;8.35;;;;;;;0.69;54.57;99486.53;5135931;27;20087;-72
2022/02/15 07:30:17;;;;;;;25.60;9.13;;;;;;;0.79;54.06;99480.69;5124824;27;20406;-70
2022/02/15 07:32:54;;;;;;;22.02;7.80;;;;;;;0.67;54.21;99483.22;5132756;27;20062;-72
2022/02/15 07:35:21;;;;;;;21.85;8.82;;;;;;;0.62;54.26;99477.69;5128967;27;20137;-72
2022/02/15 07:37:48;;;;;;;20.90;8.05;;;;;;;0.74;53.93;99475.13;5132738;27;20162;-74
2022/02/15 07:40:18;;;;;;;19.55;7.70;;;;;;;0.77;54.05;99485.44;5146101;27;20138;-73
2022/02/15 07:42:44;;;;;;;23.42;8.75;;;;;;;0.76;53.85;99489.19;5111521;27;20610;-73
2022/02/15 07:45:17;;;;;;;23.52;8.23;;;;;;;0.70;53.75;99491.69;5110325;27;20061;-72
2022/02/15 07:47:46;;;;;;;19.42;8.27;;;;;;;0.64;53.80;99479.13;5135304;27;20039;-73
2022/02/15 07:50:12;;;;;;;25.02;8.88;;;;;;;0.63;53.66;99482.88;5127122;27;20070;-73
2022/02/15 07:52:38;;;;;;;23.80;8.75;;;;;;;0.69;53.98;99479.28;5134238;27;20471;-73
2022/02/15 07:55:05;;;;;;;18.88;8.02;;;;;;;0.81;53.43;99478.59;5143460;27;20419;-72
2022/02/15 07:57:32;;;;;;;16.88;7.80;;;;;;;0.99;52.94;99473.28;5130618;27;20494;-72
2022/02/15 07:59:59;;;;;;;23.17;8.90;;;;;;;1.15;52.64;99470.22;5130214;27;20057;-72
2022/02/15 08:02:25;;;;;;;20.88;8.38;;;;;;;1.29;52.57;99469.06;5140115;27;20046;-74
2022/02/15 08:04:52;;;;;;;20.20;7.93;;;;;;;1.21;52.47;99470.19;5130483;27;20043;-70
2022/02/15 08:07:18;;;;;;;18.63;8.10;;;;;;;1.32;52.07;99470.50;5122512;27;20122;-70
2022/02/15 08:09:45;;;;;;;21.80;9.90;;;;;;;1.27;51.93;99472.00;5148733;27;20051;-70
2022/02/15 08:12:17;;;;;;;28.42;10.80;;;;;;;1.39;51.97;99458.63;5144184;27;20064;-71
2022/02/15 08:14:44;;;;;;;19.75;9.48;;;;;;;1.37;51.71;99462.56;5086263;28;20059;-70
2022/02/15 08:17:10;;;;;;;20.42;8.32;;;;;;;1.55;51.60;99477.94;5142952;27;20089;-70
2022/02/15 08:19:36;;;;;;;20.65;8.55;;;;;;;1.52;51.41;99465.75;5152739;27;20046;-71
2022/02/15 08:22:03;;;;;;;22.15;8.45;;;;;;;1.45;51.47;99472.25;5143319;27;20427;-74
2022/02/15 08:24:30;;;;;;;22.35;8.40;;;;;;;1.49;51.15;99470.78;5150545;27;20111;-71
2022/02/15 08:26:56;;;;;;;26.25;8.57;;;;;;;1.32;51.59;99465.13;5128477;28;20198;-71
2022/02/15 08:29:22;;;;;;;18.63;8.37;;;;;;;1.60;51.14;99477.28;5138089;27;20066;-73
2022/02/15 08:31:49;;;;;;;18.27;7.72;;;;;;;1.63;51.04;99490.31;5128253;27;20046;-70
2022/02/15 08:34:15;;;;;;;20.35;8.55;;;;;;;1.63;50.92;99472.25;5120270;27;20051;-72
2022/02/15 08:36:41;;;;;;;21.77;8.38;;;;;;;1.77;50.71;99472.94;5152478;27;20057;-71
2022/02/15 08:39:08;;;;;;;21.17;8.30;;;;;;;1.84;50.43;99483.66;5147525;27;20422;-71
2022/02/15 08:41:34;;;;;;;20.25;8.23;;;;;;;1.71;50.49;99463.03;5101383;27;20115;-72
2022/02/15 08:44:00;;;;;;;17.02;7.25;;;;;;;1.90;50.05;99471.97;5125882;28;20046;-73
2022/02/15 08:46:27;;;;;;;18.63;7.63;;;;;;;2.01;50.00;99475.75;5103490;28;20039;-70
2022/02/15 08:48:53;;;;;;;22.42;8.48;;;;;;;2.15;49.62;99472.91;5104241;27;20062;-71
2022/02/15 08:51:20;;;;;;;20.10;8.50;;;;;;;2.39;49.16;99471.97;5132122;27;20134;-69
2022/02/15 08:53:51;;;;;;;24.27;8.95;;;;;;;2.45;48.62;99459.44;5128069;27;20046;-72
2022/02/15 08:56:19;;;;;;;23.27;8.80;;;;;;;2.58;48.33;99468.41;5140896;27;20125;-76
2022/02/15 08:58:45;;;;;;;23.90;8.27;;;;;;;2.46;48.41;99482.69;5135139;27;20422;-72
2022/02/15 09:01:12;;;;;;;18.33;7.88;;;;;;;2.30;48.59;99477.91;5113728;27;20051;-75
2022/02/15 09:03:41;;;;;;;19.63;7.65;;;;;;;2.49;48.49;99494.88;5137602;27;20558;-76
2022/02/15 09:06:09;;;;;;;21.30;7.75;;;;;;;2.60;48.24;99490.59;5096090;27;20141;-77
2022/02/15 09:08:36;;;;;;;18.23;8.50;;;;;;;2.68;47.88;99474.06;5150809;27;20045;-78
2022/02/15 09:11:02;;;;;;;20.00;8.02;;;;;;;2.77;47.70;99479.94;5124087;27;20054;-78
2022/02/15 09:13:30;;;;;;;22.10;9.10;;;;;;;2.98;47.11;99486.69;5122172;28;20511;-77
2022/02/15 09:15:56;;;;;;;21.17;7.72;;;;;;;2.79;47.36;99464.31;5133310;28;20441;-78
2022/02/15 09:18:23;;;;;;;20.98;7.88;;;;;;;2.81;47.41;99476.56;5128859;27;20073;-78
2022/02/15 09:20:49;;;;;;;18.17;8.60;;;;;;;2.90;46.64;99481.63;5133815;27;20486;-78
2022/02/15 09:23:16;;;;;;;20.67;7.80;;;;;;;3.03;46.75;99478.69;5152166;27;20526;-78
2022/02/15 09:25:43;;;;;;;20.83;8.90;;;;;;;3.28;46.11;99476.84;5099181;27;20141;-78
2022/02/15 09:28:09;;;;;;;25.42;9.38;;;;;;;3.46;46.12;99471.34;5116019;27;20038;-79
2022/02/15 09:30:36;;;;;;;23.17;8.55;;;;;;;3.65;45.71;99488.22;5120938;28;20043;-79
2022/02/15 09:33:04;;;;;;;21.13;8.77;;;;;;;3.90;45.01;99494.44;5114384;28;20511;-79
2022/02/15 09:35:30;;;;;;;19.67;8.18;;;;;;;4.11;44.65;99472.16;5113937;27;20660;-79
2022/02/15 09:37:56;;;;;;;25.30;8.80;;;;;;;4.39;43.96;99484.06;5134811;27;20050;-79
2022/02/15 09:40:22;;;;;;;24.98;9.15;;;;;;;4.83;43.16;99479.97;5133462;27;20050;-80
2022/02/15 09:42:49;;;;;;;18.35;8.80;;;;;;;5.12;42.69;99482.59;5134909;27;20535;-79
2022/02/15 09:45:17;;;;;;;18.08;8.15;;;;;;;5.35;42.41;99486.22;5131693;27;20483;-78
2022/02/15 09:47:46;;;;;;;23.17;8.50;;;;;;;5.33;41.50;99470.19;5131962;27;20399;-79
2022/02/15 09:50:12;;;;;;;22.98;8.68;;;;;;;6.01;41.03;99485.53;5136817;27;20099;-78
2022/02/15 09:52:45;;;;;;;21.70;8.48;;;;;;;6.30;40.54;99479.06;5153139;27;20059;-78
2022/02/15 09:55:12;;;;;;;20.73;7.80;;;;;;;6.62;40.30;99476.44;5115778;27;20046;-77
2022/02/15 09:57:39;;;;;;;43.42;9.32;;;;;;;7.00;39.82;99486.56;5150963;27;20042;-78
2022/02/15 10:00:07;;;;;;;17.70;8.10;;;;;;;7.34;38.92;99476.22;5153011;27;20038;-77
2022/02/15 10:02:41;;;;;;;16.85;7.93;;;;;;;7.49;38.77;99482.84;5153113;27;20103;-81
2022/02/15 10:05:14;;;;;;;18.75;8.38;;;;;;;7.47;38.63;99488.56;5144761;27;20046;-80
2022/02/15 10:07:45;;;;;;;22.00;8.30;;;;;;;6.82;38.22;99515.75;5111569;27;20038;-80
2022/02/15 10:10:11;;;;;;;17.63;8.55;;;;;;;6.55;38.88;99485.88;5117296;27;20120;-78
2022/02/15 10:12:38;;;;;;;21.58;8.52;;;;;;;6.84;38.28;99489.13;5152985;27;20091;-77
2022/02/15 10:15:08;;;;;;;18.38;8.10;;;;;;;7.22;37.90;99484.59;5108466;27;20111;-76
2022/02/15 10:17:36;;;;;;;19.60;8.15;;;;;;;7.36;37.57;99493.09;5128297;27;20134;-77
2022/02/15 10:20:06;;;;;;;18.13;7.55;;;;;;;7.77;36.83;99497.19;5125352;27;20431;-76
2022/02/15 10:22:38;;;;;;;20.67;8.50;;;;;;;7.62;36.49;99489.72;5135444;27;20146;-76
2022/02/15 10:25:05;;;;;;;20.52;7.20;;;;;;;8.44;36.01;99505.63;5138985;27;20042;-76
2022/02/15 10:27:32;;;;;;;18.90;8.35;;;;;;;8.01;36.46;99513.09;5148491;27;20046;-76
2022/02/15 10:29:59;;;;;;;17.77;7.90;;;;;;;7.79;36.09;99503.97;5152742;27;20050;-76
2022/02/15 10:32:25;;;;;;;22.83;8.10;;;;;;;8.06;36.25;99494.06;5148655;27;20526;-76
2022/02/15 10:34:53;;;;;;;18.90;7.60;;;;;;;8.35;35.37;99496.34;5127758;27;20365;-76
2022/02/15 10:37:23;;;;;;;18.05;8.15;;;;;;;8.03;35.46;99484.50;5130413;28;20396;-76
2022/02/15 10:39:54;;;;;;;16.88;7.70;;;;;;;7.87;36.11;99505.38;5096399;27;20065;-76
2022/02/15 10:42:23;;;;;;;19.70;8.13;;;;;;;7.89;36.13;99516.03;5131972;27;20510;-76
2022/02/15 10:44:52;;;;;;;20.40;8.27;;;;;;;7.80;35.74;99492.03;5122201;27;20086;-76
2022/02/15 10:47:19;;;;;;;19.17;8.50;;;;;;;7.83;35.76;99528.78;5079355;28;20431;-76
2022/02/15 10:49:46;;;;;;;18.63;8.10;;;;;;;8.11;35.44;99504.13;5131722;27;20039;-76
2022/02/15 10:52:13;;;;;;;17.75;8.27;;;;;;;8.33;35.43;99514.84;5138290;27;20034;-76
2022/02/15 10:54:40;;;;;;;21.48;8.88;;;;;;;8.83;34.76;99509.84;5136258;27;20046;-76
2022/02/15 10:57:08;;;;;;;20.83;8.50;;;;;;;9.22;34.21;99508.50;5116654;27;20471;-76
2022/02/15 10:59:36;;;;;;;19.17;8.05;;;;;;;9.43;33.97;99503.88;5152193;27;20046;-77
2022/02/15 11:02:04;;;;;;;19.35;9.00;;;;;;;9.48;33.39;99516.69;5109714;28;20051;-77
2022/02/15 11:04:32;;;;;;;17.15;8.10;;;;;;;8.98;34.33;99500.88;5096186;28;20503;-77
2022/02/15 11:07:05;;;;;;;19.08;8.88;;;;;;;9.17;34.46;99498.41;5113240;28;20051;-77
2022/02/15 11:09:39;;;;;;;16.90;8.20;;;;;;;9.32;34.13;99510.41;5131412;28;20514;-77
2022/02/15 11:12:16;;;;;;;18.52;8.57;;;;;;;9.45;33.89;99522.72;5109077;28;20092;-77
2022/02/15 11:14:42;;;;;;;20.60;8.43;;;;;;;9.72;33.49;99503.28;5112612;27;20510;-77
2022/02/15 11:17:15;;;;;;;24.30;9.23;;;;;;;10.10;33.42;99527.50;5112899;28;20035;-77
2022/02/15 11:19:42;;;;;;;17.42;8.18;;;;;;;10.28;33.17;99519.78;5110974;27;20071;-77
2022/02/15 11:22:17;;;;;;;18.92;8.48;;;;;;;10.13;33.40;99506.97;5120584;28;20052;-75
2022/02/15 11:24:43;;;;;;;18.58;8.20;;;;;;;9.85;33.32;99501.88;5094452;28;20085;-76
2022/02/15 11:27:19;;;;;;;20.65;8.88;;;;;;;9.59;33.56;99501.94;5095017;28;20052;-75
2022/02/15 11:29:50;;;;;;;24.52;9.13;;;;;;;9.89;33.16;99493.97;5074598;27;20046;-75
2022/02/15 11:32:24;;;;;;;20.25;8.25;;;;;;;10.16;32.94;99492.78;5123148;28;20058;-76
2022/02/15 11:34:52;;;;;;;16.48;7.93;;;;;;;10.17;32.92;99497.16;5134254;27;20382;-76
2022/02/15 11:37:21;;;;;;;17.83;8.57;;;;;;;9.68;33.13;99510.41;5098924;28;20047;-76
2022/02/15 11:39:57;;;;;;;17.73;8.70;;;;;;;9.46;33.69;99538.00;5104049;28;20043;-76
2022/02/15 11:42:24;;;;;;;21.40;8.00;;;;;;;9.20;34.09;99527.06;5091332;28;20344;-76
2022/02/15 11:44:51;;;;;;;22.13;8.60;;;;;;;9.17;34.36;99514.78;5115205;28;20044;-76